Avisos AEMET Campiña SevillanaSin Avisos    + INFO

Informes METAR cercanos

 

LEZL - Sevilla (civ/Mil, Spain
Distancia de la estación: O 16km
Actualización: 21/04/2024 09:00
Despejado
Despejado
 Viento del variable
Viento: variable 4 km/h
Temperatura: 15°C
Rocío: 11°C
Humedad: 77%
Barómetro: 1014 hPa
Resumen: Despejado
Visibilidad: más de 10 km
2024/04/21 07:00 LEZL 210700Z VRB02KT CAVOK 15/11 Q1014 NOSIG
LEMO - Moron (sp-Usafb), Spain
Distancia de la estación: SSE 27km
Actualización: 21/04/2024 09:00
Despejado
Despejado
 Viento del NE
Viento: NE 6 km/h
Temperatura: 15°C
Rocío: 10°C
Humedad: 72%
Barómetro: 1014 hPa
Resumen: Despejado
Visibilidad: más de 10 km
2024/04/21 07:00 LEMO 210700Z 04003KT 010V070 CAVOK 15/10 Q1014 NOSIG
LEJR - Jerez (civ/Mil), Spain
Distancia de la estación: SSO 78km
Actualización: 21/04/2024 09:00
Despejado
Despejado
 Viento del S
Viento: S 4 km/h
Temperatura: 13°C
Rocío: 11°C
Humedad: 88%
Barómetro: 1014 hPa
Resumen: Despejado
Visibilidad: más de 10 km
2024/04/21 07:00 LEJR 210700Z 18002KT CAVOK 13/11 Q1014